sensor_id;sensor_type;location;lat;lon;timestamp;temperature;humidity
67817;DHT22;54614;47.576;7.524;2023-10-31T00:00:39;21.30;75.90
67817;DHT22;54614;47.576;7.524;2023-10-31T00:03:05;21.30;75.70
67817;DHT22;54614;47.576;7.524;2023-10-31T00:05:31;21.30;76.10
67817;DHT22;54614;47.576;7.524;2023-10-31T00:07:57;21.30;76.00
67817;DHT22;54614;47.576;7.524;2023-10-31T00:10:22;21.20;75.80
67817;DHT22;54614;47.576;7.524;2023-10-31T00:12:48;21.20;75.70
67817;DHT22;54614;47.576;7.524;2023-10-31T00:15:14;21.20;75.90
67817;DHT22;54614;47.576;7.524;2023-10-31T00:17:40;21.20;76.10
67817;DHT22;54614;47.576;7.524;2023-10-31T00:20:06;21.20;75.60
67817;DHT22;54614;47.576;7.524;2023-10-31T00:22:32;21.20;75.70
67817;DHT22;54614;47.576;7.524;2023-10-31T00:24:58;21.30;75.50
67817;DHT22;54614;47.576;7.524;2023-10-31T00:27:23;21.20;75.80
67817;DHT22;54614;47.576;7.524;2023-10-31T00:29:49;21.20;75.70
67817;DHT22;54614;47.576;7.524;2023-10-31T00:32:15;21.20;76.30
67817;DHT22;54614;47.576;7.524;2023-10-31T00:34:40;21.20;75.90
67817;DHT22;54614;47.576;7.524;2023-10-31T00:37:06;21.20;76.00
67817;DHT22;54614;47.576;7.524;2023-10-31T00:39:32;21.20;75.80
67817;DHT22;54614;47.576;7.524;2023-10-31T00:41:59;21.20;75.80
67817;DHT22;54614;47.576;7.524;2023-10-31T00:44:25;21.20;76.50
67817;DHT22;54614;47.576;7.524;2023-10-31T00:46:50;21.20;76.00
67817;DHT22;54614;47.576;7.524;2023-10-31T00:49:16;21.20;76.10
67817;DHT22;54614;47.576;7.524;2023-10-31T00:51:42;21.20;76.10
67817;DHT22;54614;47.576;7.524;2023-10-31T00:54:08;21.20;76.30
67817;DHT22;54614;47.576;7.524;2023-10-31T00:56:33;21.20;77.10
67817;DHT22;54614;47.576;7.524;2023-10-31T00:59:00;21.20;76.30
67817;DHT22;54614;47.576;7.524;2023-10-31T01:01:26;21.20;76.20
67817;DHT22;54614;47.576;7.524;2023-10-31T01:03:52;21.20;76.40
67817;DHT22;54614;47.576;7.524;2023-10-31T01:06:17;21.20;76.40
67817;DHT22;54614;47.576;7.524;2023-10-31T01:08:43;21.20;76.70
67817;DHT22;54614;47.576;7.524;2023-10-31T01:11:09;21.20;76.60
67817;DHT22;54614;47.576;7.524;2023-10-31T01:13:34;21.20;76.40
67817;DHT22;54614;47.576;7.524;2023-10-31T01:16:00;21.20;76.10
67817;DHT22;54614;47.576;7.524;2023-10-31T01:18:26;21.30;76.00
67817;DHT22;54614;47.576;7.524;2023-10-31T01:20:52;21.20;75.80
67817;DHT22;54614;47.576;7.524;2023-10-31T01:23:18;21.20;76.30
67817;DHT22;54614;47.576;7.524;2023-10-31T01:25:43;21.20;76.20
67817;DHT22;54614;47.576;7.524;2023-10-31T01:28:09;21.20;76.30
67817;DHT22;54614;47.576;7.524;2023-10-31T01:30:35;21.20;76.30
67817;DHT22;54614;47.576;7.524;2023-10-31T01:33:01;21.20;76.10
67817;DHT22;54614;47.576;7.524;2023-10-31T01:35:27;21.20;76.50
67817;DHT22;54614;47.576;7.524;2023-10-31T01:37:52;21.30;76.30
67817;DHT22;54614;47.576;7.524;2023-10-31T01:40:18;21.20;76.40
67817;DHT22;54614;47.576;7.524;2023-10-31T01:42:44;21.30;76.00
67817;DHT22;54614;47.576;7.524;2023-10-31T01:45:11;21.20;76.00
67817;DHT22;54614;47.576;7.524;2023-10-31T01:47:37;21.30;75.70
67817;DHT22;54614;47.576;7.524;2023-10-31T01:50:06;21.20;76.30
67817;DHT22;54614;47.576;7.524;2023-10-31T01:52:33;21.20;76.50
67817;DHT22;54614;47.576;7.524;2023-10-31T01:55:02;21.20;76.20
67817;DHT22;54614;47.576;7.524;2023-10-31T01:57:29;21.20;76.00
67817;DHT22;54614;47.576;7.524;2023-10-31T01:59:55;21.20;75.70
67817;DHT22;54614;47.576;7.524;2023-10-31T02:02:22;21.20;75.80
67817;DHT22;54614;47.576;7.524;2023-10-31T02:04:50;21.30;76.10
67817;DHT22;54614;47.576;7.524;2023-10-31T02:07:16;21.30;76.10
67817;DHT22;54614;47.576;7.524;2023-10-31T02:09:42;21.30;75.90
67817;DHT22;54614;47.576;7.524;2023-10-31T02:12:08;21.30;75.60
67817;DHT22;54614;47.576;7.524;2023-10-31T02:14:33;21.30;75.80
67817;DHT22;54614;47.576;7.524;2023-10-31T02:16:59;21.30;75.90
67817;DHT22;54614;47.576;7.524;2023-10-31T02:19:26;21.30;75.80
67817;DHT22;54614;47.576;7.524;2023-10-31T02:21:52;21.20;76.10
67817;DHT22;54614;47.576;7.524;2023-10-31T02:24:17;21.20;76.00
67817;DHT22;54614;47.576;7.524;2023-10-31T02:26:43;21.20;76.30
67817;DHT22;54614;47.576;7.524;2023-10-31T02:29:09;21.20;76.10
67817;DHT22;54614;47.576;7.524;2023-10-31T02:31:35;21.20;75.70
67817;DHT22;54614;47.576;7.524;2023-10-31T02:34:00;21.20;75.50
67817;DHT22;54614;47.576;7.524;2023-10-31T02:36:26;21.20;75.40
67817;DHT22;54614;47.576;7.524;2023-10-31T02:38:52;21.20;75.70
67817;DHT22;54614;47.576;7.524;2023-10-31T02:41:18;21.20;75.80
67817;DHT22;54614;47.576;7.524;2023-10-31T02:43:44;21.20;75.80
67817;DHT22;54614;47.576;7.524;2023-10-31T02:46:10;21.20;75.90
67817;DHT22;54614;47.576;7.524;2023-10-31T02:48:37;21.20;75.80
67817;DHT22;54614;47.576;7.524;2023-10-31T02:51:05;21.20;75.90
67817;DHT22;54614;47.576;7.524;2023-10-31T02:53:33;21.20;76.10
67817;DHT22;54614;47.576;7.524;2023-10-31T02:56:00;21.20;76.00
67817;DHT22;54614;47.576;7.524;2023-10-31T02:58:26;21.20;75.60
67817;DHT22;54614;47.576;7.524;2023-10-31T03:00:51;21.20;75.60
67817;DHT22;54614;47.576;7.524;2023-10-31T03:03:17;21.20;75.40
67817;DHT22;54614;47.576;7.524;2023-10-31T03:05:43;21.30;75.80
67817;DHT22;54614;47.576;7.524;2023-10-31T03:08:09;21.20;75.80
67817;DHT22;54614;47.576;7.524;2023-10-31T03:10:37;21.30;75.50
67817;DHT22;54614;47.576;7.524;2023-10-31T03:13:04;21.20;75.70
67817;DHT22;54614;47.576;7.524;2023-10-31T03:15:29;21.20;76.00
67817;DHT22;54614;47.576;7.524;2023-10-31T03:17:56;21.20;76.20
67817;DHT22;54614;47.576;7.524;2023-10-31T03:20:21;21.20;75.60
67817;DHT22;54614;47.576;7.524;2023-10-31T03:22:47;21.20;75.60
67817;DHT22;54614;47.576;7.524;2023-10-31T03:25:13;21.20;75.60
67817;DHT22;54614;47.576;7.524;2023-10-31T03:27:39;21.20;75.70
67817;DHT22;54614;47.576;7.524;2023-10-31T03:30:05;21.20;75.70
67817;DHT22;54614;47.576;7.524;2023-10-31T03:32:31;21.20;75.30
67817;DHT22;54614;47.576;7.524;2023-10-31T03:34:57;21.20;75.50
67817;DHT22;54614;47.576;7.524;2023-10-31T03:37:22;21.20;75.80
67817;DHT22;54614;47.576;7.524;2023-10-31T03:39:48;21.10;85.70
67817;DHT22;54614;47.576;7.524;2023-10-31T03:42:14;21.20;86.20
67817;DHT22;54614;47.576;7.524;2023-10-31T03:44:39;21.20;84.10
67817;DHT22;54614;47.576;7.524;2023-10-31T03:47:05;21.20;83.60
67817;DHT22;54614;47.576;7.524;2023-10-31T03:49:31;21.20;82.10
67817;DHT22;54614;47.576;7.524;2023-10-31T03:51:57;21.20;83.10
67817;DHT22;54614;47.576;7.524;2023-10-31T03:54:22;21.10;82.90
67817;DHT22;54614;47.576;7.524;2023-10-31T03:56:48;21.10;82.60
67817;DHT22;54614;47.576;7.524;2023-10-31T03:59:14;21.20;82.50
67817;DHT22;54614;47.576;7.524;2023-10-31T04:01:40;21.20;81.90
67817;DHT22;54614;47.576;7.524;2023-10-31T04:04:06;21.20;82.40
67817;DHT22;54614;47.576;7.524;2023-10-31T04:06:31;21.20;82.20
67817;DHT22;54614;47.576;7.524;2023-10-31T04:08:57;21.20;82.00
67817;DHT22;54614;47.576;7.524;2023-10-31T04:11:23;21.20;81.40
67817;DHT22;54614;47.576;7.524;2023-10-31T04:13:49;21.20;81.70
67817;DHT22;54614;47.576;7.524;2023-10-31T04:16:15;21.20;81.70
67817;DHT22;54614;47.576;7.524;2023-10-31T04:18:41;21.20;81.00
67817;DHT22;54614;47.576;7.524;2023-10-31T04:21:07;21.20;81.10
67817;DHT22;54614;47.576;7.524;2023-10-31T04:23:33;21.20;80.90
67817;DHT22;54614;47.576;7.524;2023-10-31T04:25:59;21.20;80.40
67817;DHT22;54614;47.576;7.524;2023-10-31T04:28:25;21.20;80.60
67817;DHT22;54614;47.576;7.524;2023-10-31T04:30:50;21.30;81.50
67817;DHT22;54614;47.576;7.524;2023-10-31T04:33:16;21.30;80.70
67817;DHT22;54614;47.576;7.524;2023-10-31T04:35:42;21.20;81.10
67817;DHT22;54614;47.576;7.524;2023-10-31T04:38:07;21.20;81.10
67817;DHT22;54614;47.576;7.524;2023-10-31T04:40:33;21.20;80.90
67817;DHT22;54614;47.576;7.524;2023-10-31T04:42:59;21.20;81.20
67817;DHT22;54614;47.576;7.524;2023-10-31T04:45:25;21.20;81.30
67817;DHT22;54614;47.576;7.524;2023-10-31T04:47:51;21.10;81.30
67817;DHT22;54614;47.576;7.524;2023-10-31T04:50:16;21.20;80.90
67817;DHT22;54614;47.576;7.524;2023-10-31T04:52:42;21.20;80.70
67817;DHT22;54614;47.576;7.524;2023-10-31T04:55:08;21.20;81.10
67817;DHT22;54614;47.576;7.524;2023-10-31T04:57:34;21.20;81.70
67817;DHT22;54614;47.576;7.524;2023-10-31T05:00:00;21.10;81.20
67817;DHT22;54614;47.576;7.524;2023-10-31T05:02:26;21.10;81.30
67817;DHT22;54614;47.576;7.524;2023-10-31T05:04:51;21.10;81.90
67817;DHT22;54614;47.576;7.524;2023-10-31T05:07:18;21.10;81.90
67817;DHT22;54614;47.576;7.524;2023-10-31T05:09:44;21.10;81.20
67817;DHT22;54614;47.576;7.524;2023-10-31T05:12:10;21.10;81.70
67817;DHT22;54614;47.576;7.524;2023-10-31T05:14:35;21.10;81.50
67817;DHT22;54614;47.576;7.524;2023-10-31T05:17:01;21.10;81.20
67817;DHT22;54614;47.576;7.524;2023-10-31T05:19:27;21.10;81.10
67817;DHT22;54614;47.576;7.524;2023-10-31T05:21:53;21.10;80.70
67817;DHT22;54614;47.576;7.524;2023-10-31T05:24:19;21.20;80.90
67817;DHT22;54614;47.576;7.524;2023-10-31T05:26:45;21.20;80.30
67817;DHT22;54614;47.576;7.524;2023-10-31T05:29:11;21.20;80.50
67817;DHT22;54614;47.576;7.524;2023-10-31T05:31:37;21.20;81.10
67817;DHT22;54614;47.576;7.524;2023-10-31T05:34:03;21.20;80.30
67817;DHT22;54614;47.576;7.524;2023-10-31T05:36:29;21.20;79.40
67817;DHT22;54614;47.576;7.524;2023-10-31T05:38:55;21.20;79.20
67817;DHT22;54614;47.576;7.524;2023-10-31T05:41:21;21.20;79.50
67817;DHT22;54614;47.576;7.524;2023-10-31T05:43:47;21.10;79.40
67817;DHT22;54614;47.576;7.524;2023-10-31T05:46:13;21.20;79.60
67817;DHT22;54614;47.576;7.524;2023-10-31T05:48:40;21.20;79.40
67817;DHT22;54614;47.576;7.524;2023-10-31T05:51:13;21.10;80.00
67817;DHT22;54614;47.576;7.524;2023-10-31T05:53:40;21.10;79.80
67817;DHT22;54614;47.576;7.524;2023-10-31T05:56:08;21.10;79.60
67817;DHT22;54614;47.576;7.524;2023-10-31T05:58:34;21.10;79.90
67817;DHT22;54614;47.576;7.524;2023-10-31T06:01:00;21.10;80.00
67817;DHT22;54614;47.576;7.524;2023-10-31T06:03:26;21.20;79.90
67817;DHT22;54614;47.576;7.524;2023-10-31T06:05:51;21.10;79.40
67817;DHT22;54614;47.576;7.524;2023-10-31T06:08:17;21.10;79.50
67817;DHT22;54614;47.576;7.524;2023-10-31T06:10:43;21.10;79.60
67817;DHT22;54614;47.576;7.524;2023-10-31T06:13:08;21.10;79.40
67817;DHT22;54614;47.576;7.524;2023-10-31T06:15:34;21.10;78.90
67817;DHT22;54614;47.576;7.524;2023-10-31T06:18:00;21.20;79.30
67817;DHT22;54614;47.576;7.524;2023-10-31T06:20:26;21.10;79.10
67817;DHT22;54614;47.576;7.524;2023-10-31T06:22:52;21.10;78.70
67817;DHT22;54614;47.576;7.524;2023-10-31T06:25:17;21.10;79.10
67817;DHT22;54614;47.576;7.524;2023-10-31T06:27:43;21.10;79.20
67817;DHT22;54614;47.576;7.524;2023-10-31T06:30:09;21.10;79.60
67817;DHT22;54614;47.576;7.524;2023-10-31T06:32:35;21.10;79.60
67817;DHT22;54614;47.576;7.524;2023-10-31T06:35:02;21.00;79.90
67817;DHT22;54614;47.576;7.524;2023-10-31T06:37:28;21.00;79.50
67817;DHT22;54614;47.576;7.524;2023-10-31T06:39:53;21.10;79.10
67817;DHT22;54614;47.576;7.524;2023-10-31T06:42:20;21.10;79.50
67817;DHT22;54614;47.576;7.524;2023-10-31T06:44:46;21.10;79.20
67817;DHT22;54614;47.576;7.524;2023-10-31T06:47:11;21.10;79.30
67817;DHT22;54614;47.576;7.524;2023-10-31T06:49:37;21.10;79.60
67817;DHT22;54614;47.576;7.524;2023-10-31T06:52:04;21.10;79.20
67817;DHT22;54614;47.576;7.524;2023-10-31T06:54:29;21.10;79.40
67817;DHT22;54614;47.576;7.524;2023-10-31T06:56:57;21.10;79.20
67817;DHT22;54614;47.576;7.524;2023-10-31T06:59:23;21.10;79.10
67817;DHT22;54614;47.576;7.524;2023-10-31T07:01:48;21.10;79.10
67817;DHT22;54614;47.576;7.524;2023-10-31T07:04:14;21.10;79.20
67817;DHT22;54614;47.576;7.524;2023-10-31T07:06:42;21.10;79.40
67817;DHT22;54614;47.576;7.524;2023-10-31T07:09:07;21.10;79.00
67817;DHT22;54614;47.576;7.524;2023-10-31T07:11:33;21.10;79.20
67817;DHT22;54614;47.576;7.524;2023-10-31T07:14:02;21.10;79.30
67817;DHT22;54614;47.576;7.524;2023-10-31T07:16:29;21.10;79.30
67817;DHT22;54614;47.576;7.524;2023-10-31T07:18:55;21.10;79.20
67817;DHT22;54614;47.576;7.524;2023-10-31T07:21:20;21.10;79.10
67817;DHT22;54614;47.576;7.524;2023-10-31T07:23:46;21.10;78.90
67817;DHT22;54614;47.576;7.524;2023-10-31T07:26:13;21.10;79.20
67817;DHT22;54614;47.576;7.524;2023-10-31T07:28:39;21.00;79.20
67817;DHT22;54614;47.576;7.524;2023-10-31T07:31:05;21.00;79.70
67817;DHT22;54614;47.576;7.524;2023-10-31T07:33:30;21.10;79.20
67817;DHT22;54614;47.576;7.524;2023-10-31T07:35:56;21.10;78.90
67817;DHT22;54614;47.576;7.524;2023-10-31T07:38:21;21.10;79.40
67817;DHT22;54614;47.576;7.524;2023-10-31T07:40:47;21.10;79.20
67817;DHT22;54614;47.576;7.524;2023-10-31T07:43:14;21.10;79.60
67817;DHT22;54614;47.576;7.524;2023-10-31T07:45:40;21.10;79.20
67817;DHT22;54614;47.576;7.524;2023-10-31T07:48:07;21.10;79.30
67817;DHT22;54614;47.576;7.524;2023-10-31T07:50:34;21.10;79.50
67817;DHT22;54614;47.576;7.524;2023-10-31T07:53:00;21.00;79.20
67817;DHT22;54614;47.576;7.524;2023-10-31T07:55:25;21.00;79.20
67817;DHT22;54614;47.576;7.524;2023-10-31T07:57:51;21.00;79.20
67817;DHT22;54614;47.576;7.524;2023-10-31T08:00:17;21.00;79.10
67817;DHT22;54614;47.576;7.524;2023-10-31T08:02:43;21.10;79.20
67817;DHT22;54614;47.576;7.524;2023-10-31T08:05:10;21.10;79.10
67817;DHT22;54614;47.576;7.524;2023-10-31T08:07:36;21.10;79.20
67817;DHT22;54614;47.576;7.524;2023-10-31T08:10:02;21.10;78.80
67817;DHT22;54614;47.576;7.524;2023-10-31T08:12:29;21.10;79.10
67817;DHT22;54614;47.576;7.524;2023-10-31T08:14:55;21.10;78.80
67817;DHT22;54614;47.576;7.524;2023-10-31T08:17:21;21.10;78.80
67817;DHT22;54614;47.576;7.524;2023-10-31T08:19:46;21.00;78.80
67817;DHT22;54614;47.576;7.524;2023-10-31T08:22:13;21.10;79.10
67817;DHT22;54614;47.576;7.524;2023-10-31T08:24:39;21.10;78.70
67817;DHT22;54614;47.576;7.524;2023-10-31T08:27:05;21.10;78.40
67817;DHT22;54614;47.576;7.524;2023-10-31T08:29:31;21.10;78.40
67817;DHT22;54614;47.576;7.524;2023-10-31T08:31:57;21.10;78.20
67817;DHT22;54614;47.576;7.524;2023-10-31T08:34:23;21.10;78.60
67817;DHT22;54614;47.576;7.524;2023-10-31T08:36:48;21.10;78.50
67817;DHT22;54614;47.576;7.524;2023-10-31T08:39:15;21.10;78.40
67817;DHT22;54614;47.576;7.524;2023-10-31T08:41:54;21.00;78.50
67817;DHT22;54614;47.576;7.524;2023-10-31T08:44:21;21.00;78.40
67817;DHT22;54614;47.576;7.524;2023-10-31T08:46:47;21.10;78.40
67817;DHT22;54614;47.576;7.524;2023-10-31T08:49:14;21.10;78.40
67817;DHT22;54614;47.576;7.524;2023-10-31T08:51:41;21.10;78.30
67817;DHT22;54614;47.576;7.524;2023-10-31T08:54:07;21.20;78.10
67817;DHT22;54614;47.576;7.524;2023-10-31T08:56:34;21.20;77.80
67817;DHT22;54614;47.576;7.524;2023-10-31T08:59:00;21.20;77.20
67817;DHT22;54614;47.576;7.524;2023-10-31T09:01:27;21.20;77.10
67817;DHT22;54614;47.576;7.524;2023-10-31T09:03:54;21.30;77.30
67817;DHT22;54614;47.576;7.524;2023-10-31T09:06:20;21.20;77.10
67817;DHT22;54614;47.576;7.524;2023-10-31T09:08:46;21.30;77.10
67817;DHT22;54614;47.576;7.524;2023-10-31T09:11:11;21.30;76.80
67817;DHT22;54614;47.576;7.524;2023-10-31T09:13:37;21.30;76.80
67817;DHT22;54614;47.576;7.524;2023-10-31T09:16:03;21.30;77.30
67817;DHT22;54614;47.576;7.524;2023-10-31T09:18:29;21.30;77.00
67817;DHT22;54614;47.576;7.524;2023-10-31T09:20:55;21.30;77.00
67817;DHT22;54614;47.576;7.524;2023-10-31T09:23:21;21.30;77.20
67817;DHT22;54614;47.576;7.524;2023-10-31T09:25:46;21.30;77.30
67817;DHT22;54614;47.576;7.524;2023-10-31T09:28:12;21.40;76.90
67817;DHT22;54614;47.576;7.524;2023-10-31T09:30:38;21.40;76.80
67817;DHT22;54614;47.576;7.524;2023-10-31T09:33:04;21.50;76.50
67817;DHT22;54614;47.576;7.524;2023-10-31T09:35:29;21.50;76.50
67817;DHT22;54614;47.576;7.524;2023-10-31T09:37:55;21.50;76.70
67817;DHT22;54614;47.576;7.524;2023-10-31T09:40:21;21.50;76.30
67817;DHT22;54614;47.576;7.524;2023-10-31T09:42:48;21.60;76.10
67817;DHT22;54614;47.576;7.524;2023-10-31T09:45:15;21.60;76.00
67817;DHT22;54614;47.576;7.524;2023-10-31T09:47:42;21.60;76.00
67817;DHT22;54614;47.576;7.524;2023-10-31T09:50:09;21.60;76.40
67817;DHT22;54614;47.576;7.524;2023-10-31T09:52:36;21.60;76.50
67817;DHT22;54614;47.576;7.524;2023-10-31T09:55:02;21.50;76.70
67817;DHT22;54614;47.576;7.524;2023-10-31T09:57:29;21.50;76.30
67817;DHT22;54614;47.576;7.524;2023-10-31T09:59:55;21.60;77.20
67817;DHT22;54614;47.576;7.524;2023-10-31T10:02:20;21.60;76.60
67817;DHT22;54614;47.576;7.524;2023-10-31T10:04:47;21.60;76.50
67817;DHT22;54614;47.576;7.524;2023-10-31T10:07:19;21.70;76.30
67817;DHT22;54614;47.576;7.524;2023-10-31T10:09:46;21.60;76.60
67817;DHT22;54614;47.576;7.524;2023-10-31T10:12:18;21.60;76.10
67817;DHT22;54614;47.576;7.524;2023-10-31T10:14:46;21.50;76.60
67817;DHT22;54614;47.576;7.524;2023-10-31T10:17:23;21.50;76.30
67817;DHT22;54614;47.576;7.524;2023-10-31T10:22:31;21.40;75.60
67817;DHT22;54614;47.576;7.524;2023-10-31T10:24:57;21.40;75.70
67817;DHT22;54614;47.576;7.524;2023-10-31T10:27:23;21.40;75.90
67817;DHT22;54614;47.576;7.524;2023-10-31T10:29:53;21.40;76.00
67817;DHT22;54614;47.576;7.524;2023-10-31T10:32:18;21.40;76.00
67817;DHT22;54614;47.576;7.524;2023-10-31T10:34:45;21.40;75.80
67817;DHT22;54614;47.576;7.524;2023-10-31T10:37:12;21.30;75.80
67817;DHT22;54614;47.576;7.524;2023-10-31T10:39:39;21.30;75.70
67817;DHT22;54614;47.576;7.524;2023-10-31T10:42:10;21.30;76.20
67817;DHT22;54614;47.576;7.524;2023-10-31T10:44:43;21.40;75.90
67817;DHT22;54614;47.576;7.524;2023-10-31T10:47:12;21.30;75.50
67817;DHT22;54614;47.576;7.524;2023-10-31T10:49:41;21.30;75.40
67817;DHT22;54614;47.576;7.524;2023-10-31T10:52:18;21.30;75.40
67817;DHT22;54614;47.576;7.524;2023-10-31T10:55:20;21.30;75.20
67817;DHT22;54614;47.576;7.524;2023-10-31T10:58:00;21.30;75.30
67817;DHT22;54614;47.576;7.524;2023-10-31T11:00:29;21.20;76.00
67817;DHT22;54614;47.576;7.524;2023-10-31T11:02:56;21.20;76.10
67817;DHT22;54614;47.576;7.524;2023-10-31T11:05:23;21.20;76.10
67817;DHT22;54614;47.576;7.524;2023-10-31T11:07:51;21.20;76.30
67817;DHT22;54614;47.576;7.524;2023-10-31T11:10:18;21.30;76.20
67817;DHT22;54614;47.576;7.524;2023-10-31T11:12:44;21.30;76.10
67817;DHT22;54614;47.576;7.524;2023-10-31T11:15:14;21.30;75.90
67817;DHT22;54614;47.576;7.524;2023-10-31T11:17:45;21.40;75.60
67817;DHT22;54614;47.576;7.524;2023-10-31T11:20:15;21.40;76.20
67817;DHT22;54614;47.576;7.524;2023-10-31T11:22:46;21.30;75.60
67817;DHT22;54614;47.576;7.524;2023-10-31T11:25:18;21.40;75.60
67817;DHT22;54614;47.576;7.524;2023-10-31T11:27:45;21.40;75.80
67817;DHT22;54614;47.576;7.524;2023-10-31T11:30:33;21.40;75.70
67817;DHT22;54614;47.576;7.524;2023-10-31T11:32:59;21.30;75.70
67817;DHT22;54614;47.576;7.524;2023-10-31T11:35:29;21.30;76.10
67817;DHT22;54614;47.576;7.524;2023-10-31T11:38:06;21.30;75.70
67817;DHT22;54614;47.576;7.524;2023-10-31T11:40:35;21.40;75.60
67817;DHT22;54614;47.576;7.524;2023-10-31T11:43:05;21.40;75.50
67817;DHT22;54614;47.576;7.524;2023-10-31T11:48:07;21.30;75.70
67817;DHT22;54614;47.576;7.524;2023-10-31T11:50:36;21.30;75.70
67817;DHT22;54614;47.576;7.524;2023-10-31T11:53:05;21.30;76.00
67817;DHT22;54614;47.576;7.524;2023-10-31T11:55:35;21.30;75.70
67817;DHT22;54614;47.576;7.524;2023-10-31T11:58:25;21.30;76.30
67817;DHT22;54614;47.576;7.524;2023-10-31T12:01:06;21.20;76.30
67817;DHT22;54614;47.576;7.524;2023-10-31T12:03:43;21.20;76.00
67817;DHT22;54614;47.576;7.524;2023-10-31T12:06:13;21.30;76.20
67817;DHT22;54614;47.576;7.524;2023-10-31T12:08:41;21.30;75.70
67817;DHT22;54614;47.576;7.524;2023-10-31T12:11:09;21.30;76.20
67817;DHT22;54614;47.576;7.524;2023-10-31T12:13:38;21.40;76.10
67817;DHT22;54614;47.576;7.524;2023-10-31T12:16:17;21.40;75.90
67817;DHT22;54614;47.576;7.524;2023-10-31T12:18:43;21.40;75.70
67817;DHT22;54614;47.576;7.524;2023-10-31T12:21:09;21.40;76.00
67817;DHT22;54614;47.576;7.524;2023-10-31T12:23:39;21.40;76.10
67817;DHT22;54614;47.576;7.524;2023-10-31T12:26:05;21.40;75.80
67817;DHT22;54614;47.576;7.524;2023-10-31T12:28:31;21.50;76.00
67817;DHT22;54614;47.576;7.524;2023-10-31T12:30:56;21.50;76.30
67817;DHT22;54614;47.576;7.524;2023-10-31T12:33:26;21.50;76.30
67817;DHT22;54614;47.576;7.524;2023-10-31T12:35:57;21.50;75.90
67817;DHT22;54614;47.576;7.524;2023-10-31T12:38:24;21.50;75.90
67817;DHT22;54614;47.576;7.524;2023-10-31T12:40:51;21.40;76.10
67817;DHT22;54614;47.576;7.524;2023-10-31T12:43:18;21.40;75.90
67817;DHT22;54614;47.576;7.524;2023-10-31T12:45:44;21.40;75.70
67817;DHT22;54614;47.576;7.524;2023-10-31T12:48:10;21.40;76.40
67817;DHT22;54614;47.576;7.524;2023-10-31T12:50:37;21.40;76.10
67817;DHT22;54614;47.576;7.524;2023-10-31T12:53:06;21.40;76.10
67817;DHT22;54614;47.576;7.524;2023-10-31T12:55:38;21.40;76.10
67817;DHT22;54614;47.576;7.524;2023-10-31T12:58:05;21.40;76.00
67817;DHT22;54614;47.576;7.524;2023-10-31T13:00:33;21.40;75.90
67817;DHT22;54614;47.576;7.524;2023-10-31T13:03:07;21.40;76.00
67817;DHT22;54614;47.576;7.524;2023-10-31T13:05:34;21.40;75.70
67817;DHT22;54614;47.576;7.524;2023-10-31T13:08:13;21.40;75.80
67817;DHT22;54614;47.576;7.524;2023-10-31T13:10:41;21.30;75.90
67817;DHT22;54614;47.576;7.524;2023-10-31T13:13:08;21.30;76.10
67817;DHT22;54614;47.576;7.524;2023-10-31T13:15:34;21.30;76.40
67817;DHT22;54614;47.576;7.524;2023-10-31T13:18:02;21.30;76.20
67817;DHT22;54614;47.576;7.524;2023-10-31T13:20:28;21.30;76.30
67817;DHT22;54614;47.576;7.524;2023-10-31T13:22:54;21.30;76.50
67817;DHT22;54614;47.576;7.524;2023-10-31T13:25:20;21.30;76.40
67817;DHT22;54614;47.576;7.524;2023-10-31T13:27:46;21.30;75.90
67817;DHT22;54614;47.576;7.524;2023-10-31T13:30:16;21.40;75.80
67817;DHT22;54614;47.576;7.524;2023-10-31T13:32:43;21.40;75.70
67817;DHT22;54614;47.576;7.524;2023-10-31T13:35:09;21.40;76.00
67817;DHT22;54614;47.576;7.524;2023-10-31T13:37:36;21.40;76.40
67817;DHT22;54614;47.576;7.524;2023-10-31T13:40:03;21.30;76.10
67817;DHT22;54614;47.576;7.524;2023-10-31T13:42:29;21.30;76.30
67817;DHT22;54614;47.576;7.524;2023-10-31T13:44:55;21.40;75.70
67817;DHT22;54614;47.576;7.524;2023-10-31T13:47:21;21.40;75.70
67817;DHT22;54614;47.576;7.524;2023-10-31T13:49:47;21.40;76.00
67817;DHT22;54614;47.576;7.524;2023-10-31T13:52:13;21.40;76.10
67817;DHT22;54614;47.576;7.524;2023-10-31T13:54:39;21.50;75.50
67817;DHT22;54614;47.576;7.524;2023-10-31T13:57:05;21.50;75.40
67817;DHT22;54614;47.576;7.524;2023-10-31T13:59:31;21.50;75.90
67817;DHT22;54614;47.576;7.524;2023-10-31T14:01:57;21.50;75.70
67817;DHT22;54614;47.576;7.524;2023-10-31T14:04:23;21.40;76.40
67817;DHT22;54614;47.576;7.524;2023-10-31T14:06:48;21.40;76.20
67817;DHT22;54614;47.576;7.524;2023-10-31T14:09:14;21.40;76.00
67817;DHT22;54614;47.576;7.524;2023-10-31T14:11:41;21.40;76.00
67817;DHT22;54614;47.576;7.524;2023-10-31T14:14:07;21.40;76.60
67817;DHT22;54614;47.576;7.524;2023-10-31T14:16:39;21.40;75.90
67817;DHT22;54614;47.576;7.524;2023-10-31T14:19:05;21.30;76.00
67817;DHT22;54614;47.576;7.524;2023-10-31T14:21:33;21.40;75.90
67817;DHT22;54614;47.576;7.524;2023-10-31T14:24:00;21.40;75.40
67817;DHT22;54614;47.576;7.524;2023-10-31T14:26:29;21.40;75.60
67817;DHT22;54614;47.576;7.524;2023-10-31T14:28:56;21.40;75.80
67817;DHT22;54614;47.576;7.524;2023-10-31T14:31:21;21.30;75.60
67817;DHT22;54614;47.576;7.524;2023-10-31T14:33:47;21.30;75.40
67817;DHT22;54614;47.576;7.524;2023-10-31T14:36:14;21.30;75.40
67817;DHT22;54614;47.576;7.524;2023-10-31T14:38:41;21.20;75.70
67817;DHT22;54614;47.576;7.524;2023-10-31T14:41:07;21.30;76.00
67817;DHT22;54614;47.576;7.524;2023-10-31T14:43:34;21.30;76.40
67817;DHT22;54614;47.576;7.524;2023-10-31T14:46:01;21.30;76.00
67817;DHT22;54614;47.576;7.524;2023-10-31T14:48:27;21.30;76.00
67817;DHT22;54614;47.576;7.524;2023-10-31T14:50:54;21.30;76.00
67817;DHT22;54614;47.576;7.524;2023-10-31T14:53:19;21.40;75.80
67817;DHT22;54614;47.576;7.524;2023-10-31T14:55:46;21.40;75.70
67817;DHT22;54614;47.576;7.524;2023-10-31T14:58:13;21.40;76.30
67817;DHT22;54614;47.576;7.524;2023-10-31T15:00:39;21.30;76.50
67817;DHT22;54614;47.576;7.524;2023-10-31T15:03:05;21.30;76.00
67817;DHT22;54614;47.576;7.524;2023-10-31T15:05:31;21.30;76.50
67817;DHT22;54614;47.576;7.524;2023-10-31T15:07:57;21.30;76.20
67817;DHT22;54614;47.576;7.524;2023-10-31T15:10:24;21.30;76.40
67817;DHT22;54614;47.576;7.524;2023-10-31T15:12:51;21.30;76.40
67817;DHT22;54614;47.576;7.524;2023-10-31T15:15:17;21.30;76.30
67817;DHT22;54614;47.576;7.524;2023-10-31T15:17:44;21.40;76.10
67817;DHT22;54614;47.576;7.524;2023-10-31T15:20:10;21.30;76.30
67817;DHT22;54614;47.576;7.524;2023-10-31T15:22:40;21.30;75.70
67817;DHT22;54614;47.576;7.524;2023-10-31T15:25:10;21.30;76.10
67817;DHT22;54614;47.576;7.524;2023-10-31T15:27:37;21.30;76.50
67817;DHT22;54614;47.576;7.524;2023-10-31T15:30:06;21.30;76.80
67817;DHT22;54614;47.576;7.524;2023-10-31T15:32:33;21.30;76.80